Terminal Aerodrome Forecast
Issued by NWS

Current Version | Previous Version | Text Only | Print | Product List | Glossary Off
Versions: 1 2 3 4 5 6 7 8 9 10 11 12 13 14 15 16 17 18 19 20

000
FTUS41 KRNK 232320
TAFLWB
TAF
KLWB 232320Z 2400/2424 24003KT P6SM SKC
     FM240800 00000KT 1/4SM FG BKN001
     FM241330 VRB03KT P6SM SKC
     FM241900 20004KT P6SM SCT050=

USA.gov is the U.S. government's official web portal to all federal, state and local government web resources and services.